createdAt,value
2018-06-04T00:00:07.278Z,4.4
2018-06-04T00:06:02.251Z,3.87
2018-06-04T00:11:57.287Z,3.99
2018-06-04T00:17:52.292Z,4.28
2018-06-04T00:23:47.309Z,3.97
2018-06-04T00:29:42.260Z,4
2018-06-04T00:35:37.298Z,3.85
2018-06-04T00:41:32.370Z,3.76
2018-06-04T00:47:27.285Z,3.85
2018-06-04T00:53:22.328Z,4.28
2018-06-04T00:59:17.326Z,4.4
2018-06-04T01:05:12.311Z,4
2018-06-04T01:11:07.322Z,3.59
2018-06-04T01:17:02.305Z,3.74
2018-06-04T01:22:57.365Z,3.82
2018-06-04T01:28:52.318Z,3.97
2018-06-04T01:34:47.350Z,4.18
2018-06-04T01:40:42.341Z,4.36
2018-06-04T01:46:37.347Z,4.51
2018-06-04T01:52:32.383Z,3.6
2018-06-04T01:58:27.374Z,3.97
2018-06-04T02:04:22.416Z,4.23
2018-06-04T02:10:17.375Z,3.98
2018-06-04T02:16:12.427Z,3.86
2018-06-04T02:22:07.411Z,4.8
2018-06-04T02:28:02.470Z,3.64
2018-06-04T02:33:57.434Z,4.21
2018-06-04T02:39:52.408Z,4.46
2018-06-04T02:45:47.543Z,4.53
2018-06-04T02:51:42.451Z,4.23
2018-06-04T02:57:37.435Z,3.56
2018-06-04T03:03:32.434Z,4.08
2018-06-04T03:09:27.486Z,4.68
2018-06-04T03:15:22.498Z,4.54
2018-06-04T03:21:17.531Z,4.07
2018-06-04T03:27:12.487Z,4.28
2018-06-04T03:33:07.444Z,3.81
2018-06-04T03:39:02.511Z,3.86
2018-06-04T03:44:57.503Z,4.45
2018-06-04T03:50:52.473Z,3.75
2018-06-04T03:56:47.468Z,3.64
2018-06-04T04:02:42.513Z,4.7
2018-06-04T04:08:37.467Z,4.18
2018-06-04T04:14:32.471Z,3.62
2018-06-04T04:20:27.487Z,3.91
2018-06-04T04:26:22.489Z,3.89
2018-06-04T04:32:17.556Z,4.73
2018-06-04T04:38:12.619Z,4.36
2018-06-04T04:50:02.527Z,4.87
2018-06-04T04:50:02.836Z,5.06
2018-06-04T04:55:57.547Z,4.31
2018-06-04T05:01:52.564Z,4.29
2018-06-04T05:07:47.514Z,4.83
2018-06-04T05:13:42.565Z,4.2
2018-06-04T05:19:37.558Z,4.12
2018-06-04T05:25:32.596Z,4.82
2018-06-04T05:31:27.627Z,4.29
2018-06-04T05:37:22.578Z,4.85
2018-06-04T05:43:17.568Z,4.18
2018-06-04T05:49:12.611Z,4.06
2018-06-04T05:55:07.647Z,3.72
2018-06-04T06:01:02.636Z,3.45
2018-06-04T06:06:57.618Z,4.64
2018-06-04T06:12:52.734Z,4.94
2018-06-04T06:18:47.637Z,5.1
2018-06-04T06:24:42.630Z,5.33
2018-06-04T06:30:37.601Z,5.88
2018-06-04T06:36:32.761Z,4.42
2018-06-04T06:42:28.005Z,4
2018-06-04T06:48:22.632Z,4.28
2018-06-04T06:54:17.646Z,4.67
2018-06-04T07:00:12.705Z,4.39
2018-06-04T07:06:07.662Z,3.38
2018-06-04T07:12:02.818Z,4.74
2018-06-04T07:17:57.753Z,4.43
2018-06-04T07:23:52.780Z,3.99
2018-06-04T07:29:47.699Z,4.25
2018-06-04T07:35:42.709Z,3.72
2018-06-04T07:41:37.689Z,3.98
2018-06-04T07:47:32.739Z,3.7
2018-06-04T07:53:27.707Z,3.88
2018-06-04T07:59:22.680Z,4.22
2018-06-04T08:05:17.923Z,4.31
2018-06-04T08:11:12.707Z,3.5
2018-06-04T08:17:07.730Z,3.66
2018-06-04T08:23:02.737Z,3.79
2018-06-04T08:28:57.778Z,4.11
2018-06-04T08:34:52.707Z,5.33
2018-06-04T08:40:47.755Z,4.53
2018-06-04T08:46:42.749Z,4.42
2018-06-04T08:52:37.765Z,4.59
2018-06-04T08:58:32.763Z,4.37
2018-06-04T09:04:27.862Z,4.17
2018-06-04T09:10:24.062Z,3.99
2018-06-04T09:16:17.785Z,4.43
2018-06-04T09:22:12.771Z,4.53
2018-06-04T09:28:07.847Z,5.21
2018-06-04T09:34:03.046Z,4.32
2018-06-04T09:39:57.807Z,4.21
2018-06-04T09:45:52.835Z,3.86
2018-06-04T09:51:47.897Z,4.64
2018-06-04T09:57:43.051Z,4.45
2018-06-04T10:03:37.860Z,3.76
2018-06-04T10:09:32.818Z,3.66
2018-06-04T10:15:28.459Z,3.87
2018-06-04T10:21:22.866Z,5.08
2018-06-04T10:27:17.926Z,4.72
2018-06-04T10:33:12.918Z,3.85
2018-06-04T10:39:07.852Z,4.33
2018-06-04T10:45:03.240Z,4.57
2018-06-04T10:50:57.905Z,4.27
2018-06-04T10:56:52.871Z,4.25
2018-06-04T11:02:48.386Z,4.11
2018-06-04T11:08:42.911Z,4.41
2018-06-04T11:14:37.910Z,4.55
2018-06-04T11:20:32.866Z,4.49
2018-06-04T11:26:27.932Z,4.7
2018-06-04T11:32:22.900Z,4.81
2018-06-04T11:38:17.911Z,4.38
2018-06-04T11:44:12.923Z,5.03
2018-06-04T11:50:08.042Z,3.99
2018-06-04T11:56:02.939Z,4.37
2018-06-04T12:01:57.914Z,4.24
2018-06-04T12:07:52.962Z,5.29
2018-06-04T12:13:48.015Z,4.06
2018-06-04T12:19:42.954Z,4.36
2018-06-04T12:25:37.978Z,4.57
2018-06-04T12:31:32.936Z,5.01
2018-06-04T12:37:28.004Z,4.47
2018-06-04T12:43:22.959Z,5.34
2018-06-04T12:49:17.968Z,5.36
2018-06-04T12:55:12.987Z,4.14
2018-06-04T13:01:08.035Z,7.38
2018-06-04T13:07:03.070Z,5.46
2018-06-04T13:12:57.985Z,4.09
2018-06-04T13:18:53.003Z,4.48
2018-06-04T13:24:48.039Z,6.08
2018-06-04T13:30:43.444Z,3.26
2018-06-04T13:36:38.042Z,3.38
2018-06-04T13:42:33.038Z,3.43
2018-06-04T13:48:28.047Z,3.38
2018-06-04T13:54:23.127Z,3.36
2018-06-04T14:00:18.702Z,4.67
2018-06-04T14:06:13.193Z,4.17
2018-06-04T14:12:08.090Z,4.23
2018-06-04T14:18:03.537Z,4.1
2018-06-04T14:23:58.161Z,4.18
2018-06-04T14:29:53.096Z,4.74
2018-06-04T14:35:48.209Z,4.87
2018-06-04T14:41:43.119Z,4.51
2018-06-04T14:47:38.091Z,5.23
2018-06-04T14:53:33.079Z,5
2018-06-04T14:59:28.128Z,6.59
2018-06-04T15:05:23.108Z,5.97
2018-06-04T15:11:18.125Z,5.48
2018-06-04T15:17:13.151Z,5.84
2018-06-04T15:23:08.145Z,5.98
2018-06-04T15:29:03.165Z,6.02
2018-06-04T15:34:58.150Z,5.11
2018-06-04T15:40:53.146Z,5.89
2018-06-04T15:46:48.170Z,6.31
2018-06-04T15:52:43.240Z,7.02
2018-06-04T15:58:38.161Z,6.67
2018-06-04T16:04:33.153Z,7
2018-06-04T16:10:28.254Z,6.79
2018-06-04T16:16:23.236Z,5.92
2018-06-04T16:22:18.165Z,6.3
2018-06-04T16:28:13.176Z,8.47
2018-06-04T16:34:08.219Z,7.81
2018-06-04T16:40:03.200Z,7.1
2018-06-04T16:45:58.230Z,6.18
2018-06-04T16:51:53.217Z,5.34
2018-06-04T16:57:48.263Z,5.53
2018-06-04T17:03:43.215Z,5.82
2018-06-04T17:09:38.257Z,6
2018-06-04T17:15:33.261Z,5.72
2018-06-04T17:21:28.273Z,5.89
2018-06-04T17:27:23.273Z,6.09
2018-06-04T17:33:18.222Z,5.71
2018-06-04T17:39:13.265Z,3.51
2018-06-04T17:45:08.321Z,3.85
2018-06-04T17:51:03.285Z,4.4
2018-06-04T17:56:58.287Z,3.97
2018-06-04T18:02:53.286Z,3.73
2018-06-04T18:08:48.417Z,2.97
2018-06-04T18:14:43.280Z,3.68
2018-06-04T18:20:38.329Z,2.53
2018-06-04T18:26:33.331Z,3.05
2018-06-04T18:32:28.284Z,3.24
2018-06-04T18:38:23.311Z,2.56
2018-06-04T18:44:18.399Z,3.06
2018-06-04T18:50:13.336Z,2.79
2018-06-04T18:56:08.311Z,2.8
2018-06-04T19:02:03.664Z,2.72
2018-06-04T19:07:58.634Z,2.89
2018-06-04T19:13:53.886Z,2.53
2018-06-04T19:19:48.361Z,3.04
2018-06-04T19:25:43.379Z,2.62
2018-06-04T19:31:38.394Z,2.12
2018-06-04T19:37:33.344Z,2.4
2018-06-04T19:43:28.371Z,4.52
2018-06-04T19:49:23.528Z,3.46
2018-06-04T19:55:18.528Z,2.43
2018-06-04T20:01:13.507Z,2.71
2018-06-04T20:07:08.403Z,2.14
2018-06-04T20:13:03.449Z,3.25
2018-06-04T20:18:58.432Z,2.52
2018-06-04T20:24:53.759Z,2.23
2018-06-04T20:30:49.110Z,2.73
2018-06-04T20:36:43.553Z,3.05
2018-06-04T20:42:38.415Z,3.15
2018-06-04T20:48:33.441Z,2.99
2018-06-04T20:54:28.457Z,2.52
2018-06-04T21:00:23.502Z,3.36
2018-06-04T21:06:18.921Z,3.18
2018-06-04T21:12:13.512Z,2.5
2018-06-04T21:18:08.433Z,2.3
2018-06-04T21:24:03.458Z,2.15
2018-06-04T21:29:58.562Z,3.05
2018-06-04T21:35:53.474Z,2.77
2018-06-04T21:41:48.465Z,2.81
2018-06-04T21:47:43.537Z,2.8
2018-06-04T21:53:38.517Z,2.3
2018-06-04T21:59:33.526Z,2.97
2018-06-04T22:05:28.503Z,2.66
2018-06-04T22:11:23.533Z,2.73
2018-06-04T22:17:18.523Z,2.51
2018-06-04T22:23:13.554Z,3.4
2018-06-04T22:29:08.556Z,2.41
2018-06-04T22:35:03.707Z,2.85
2018-06-04T22:40:58.536Z,2.49
2018-06-04T22:46:53.572Z,2.81
2018-06-04T22:52:48.554Z,2.51
2018-06-04T22:58:43.548Z,3.09
2018-06-04T23:04:38.565Z,2.89
2018-06-04T23:10:33.578Z,3.46
2018-06-04T23:16:28.588Z,3.69
2018-06-04T23:22:23.587Z,2.9
2018-06-04T23:28:18.603Z,3.6
2018-06-04T23:34:13.618Z,3.04
2018-06-04T23:40:08.615Z,2.89
2018-06-04T23:46:03.680Z,2.55
2018-06-04T23:51:58.680Z,2.33
2018-06-04T23:57:53.636Z,3.34
